Terminal Aerodrome Forecast
Issued by NWS

Home | Current Version | Previous Version | Text Only | Print | Product List | Glossary On
Versions: 1 2 3 4 5 6 7 8 9 10 11 12
000
FTUS43 KDTX 312300
TAFMBS
TAF
KMBS 312320Z 0100/0124 27010KT P6SM SCT050 SCT120
     FM010600 20005KT P6SM SCT050 BKN120
     FM011400 24006KT P6SM BKN060
     FM012300 20004KT P6SM SCT060 BKN150=

USA.gov is the U.S. government's official web portal to all federal, state and local government web resources and services.